createdAt,value
2023-03-22T00:00:48.972Z,84.53
2023-03-22T00:01:48.986Z,84.19
2023-03-22T00:02:49.004Z,84.19
2023-03-22T00:03:49.055Z,84.09
2023-03-22T00:04:48.923Z,84.09
2023-03-22T00:05:48.960Z,83.98
2023-03-22T00:06:48.901Z,83.98
2023-03-22T00:07:48.916Z,84.60
2023-03-22T00:08:48.877Z,84.39
2023-03-22T00:09:48.902Z,85.01
2023-03-22T00:10:48.884Z,83.88
2023-03-22T00:11:48.892Z,84.19
2023-03-22T00:12:48.866Z,83.68
2023-03-22T00:13:48.836Z,83.98
2023-03-22T00:14:48.850Z,83.27
2023-03-22T00:15:48.859Z,83.13
2023-03-22T00:16:48.846Z,83.44
2023-03-22T00:17:48.799Z,82.92
2023-03-22T00:18:48.800Z,83.03
2023-03-22T00:19:48.771Z,83.13
2023-03-22T00:20:48.784Z,83.44
2023-03-22T00:21:48.741Z,83.37
2023-03-22T00:22:48.771Z,83.23
2023-03-22T00:23:48.779Z,83.58
2023-03-22T00:24:48.745Z,83.37
2023-03-22T00:25:48.710Z,83.37
2023-03-22T00:26:48.712Z,83.78
2023-03-22T00:27:48.678Z,83.68
2023-03-22T00:28:48.706Z,84.09
2023-03-22T00:29:48.694Z,84.60
2023-03-22T00:30:48.669Z,84.44
2023-03-22T00:31:48.730Z,84.74
2023-03-22T00:32:48.655Z,84.95
2023-03-22T00:33:48.616Z,84.95
2023-03-22T00:34:48.641Z,85.36
2023-03-22T00:35:48.656Z,85.05
2023-03-22T00:36:48.609Z,85.60
2023-03-22T00:37:48.580Z,85.15
2023-03-22T00:38:48.596Z,85.15
2023-03-22T00:39:48.555Z,85.46
2023-03-22T00:40:48.566Z,85.05
2023-03-22T00:41:48.545Z,85.05
2023-03-22T00:42:48.564Z,85.25
2023-03-22T00:43:48.525Z,84.95
2023-03-22T00:44:48.529Z,85.56
2023-03-22T00:45:48.523Z,85.77
2023-03-22T00:46:48.507Z,85.19
2023-03-22T00:47:48.547Z,85.39
2023-03-22T00:48:48.514Z,85.60
2023-03-22T00:49:48.451Z,85.60
2023-03-22T00:50:48.458Z,86.01
2023-03-22T00:51:48.428Z,85.50
2023-03-22T00:52:48.471Z,85.39
2023-03-22T00:53:48.424Z,86.01
2023-03-22T00:54:48.418Z,85.60
2023-03-22T00:55:48.459Z,86.52
2023-03-22T00:56:48.402Z,86.73
2023-03-22T00:57:48.378Z,86.32
2023-03-22T00:58:48.409Z,86.32
2023-03-22T00:59:48.361Z,86.63
2023-03-22T01:00:48.418Z,86.22
2023-03-22T01:01:48.346Z,86.01
2023-03-22T01:02:48.338Z,85.60
2023-03-22T01:03:48.317Z,85.36
2023-03-22T01:04:48.333Z,85.25
2023-03-22T01:05:48.312Z,86.58
2023-03-22T01:06:48.296Z,86.69
2023-03-22T01:07:48.262Z,86.58
2023-03-22T01:08:48.268Z,86.07
2023-03-22T01:09:48.233Z,87.92
2023-03-22T01:10:48.245Z,86.58
2023-03-22T01:11:48.234Z,86.79
2023-03-22T01:12:48.227Z,86.93
2023-03-22T01:13:48.198Z,87.14
2023-03-22T01:14:48.330Z,87.45
2023-03-22T01:15:48.188Z,88.17
2023-03-22T01:16:48.230Z,87.96
2023-03-22T01:17:48.188Z,88.37
2023-03-22T01:18:48.172Z,88.17
2023-03-22T01:19:48.122Z,88.27
2023-03-22T01:20:48.142Z,88.17
2023-03-22T01:21:48.107Z,88.68
2023-03-22T01:22:48.121Z,90.01
2023-03-22T01:23:48.098Z,87.65
2023-03-22T01:24:48.093Z,87.55
2023-03-22T01:25:48.072Z,87.34
2023-03-22T01:26:48.082Z,87.34
2023-03-22T01:27:48.055Z,87.34
2023-03-22T01:28:48.051Z,87.24
2023-03-22T01:29:48.051Z,87.24
2023-03-22T01:30:48.079Z,86.07
2023-03-22T01:31:48.004Z,85.77
2023-03-22T01:32:48.018Z,85.05
2023-03-22T01:33:47.990Z,84.50
2023-03-22T01:34:47.996Z,84.91
2023-03-22T01:35:48.064Z,85.22
2023-03-22T01:36:47.971Z,85.11
2023-03-22T01:37:47.934Z,84.19
2023-03-22T01:38:47.945Z,85.11
2023-03-22T01:39:47.910Z,84.39
2023-03-22T01:40:47.933Z,85.31
2023-03-22T01:41:47.922Z,84.29
2023-03-22T01:42:47.906Z,84.09
2023-03-22T01:43:47.885Z,84.29
2023-03-22T01:44:47.890Z,84.09
2023-03-22T01:45:47.946Z,84.39
2023-03-22T01:46:47.858Z,84.60
2023-03-22T01:47:47.894Z,83.98
2023-03-22T01:48:47.909Z,84.09
2023-03-22T01:49:47.818Z,83.68
2023-03-22T01:50:47.816Z,83.47
2023-03-22T01:51:47.796Z,83.44
2023-03-22T01:52:47.807Z,83.47
2023-03-22T01:53:47.780Z,84.56
2023-03-22T01:54:47.785Z,83.88
2023-03-22T01:55:47.752Z,83.78
2023-03-22T01:56:47.756Z,83.23
2023-03-22T01:57:47.730Z,83.58
2023-03-22T01:58:47.735Z,83.33
2023-03-22T01:59:47.820Z,83.54
2023-03-22T02:00:47.715Z,83.78
2023-03-22T02:01:47.712Z,84.39
2023-03-22T02:02:47.749Z,84.39
2023-03-22T02:03:47.661Z,84.29
2023-03-22T02:04:47.678Z,84.60
2023-03-22T02:05:47.673Z,83.98
2023-03-22T02:06:47.659Z,84.60
2023-03-22T02:07:47.617Z,84.09
2023-03-22T02:08:47.636Z,84.29
2023-03-22T02:09:47.600Z,83.98
2023-03-22T02:10:47.613Z,83.98
2023-03-22T02:11:47.598Z,84.50
2023-03-22T02:12:47.786Z,84.39
2023-03-22T02:13:47.552Z,84.60
2023-03-22T02:14:47.584Z,84.70
2023-03-22T02:15:47.592Z,84.91
2023-03-22T02:16:47.542Z,85.01
2023-03-22T02:17:47.535Z,84.80
2023-03-22T02:18:47.539Z,85.31
2023-03-22T02:19:47.507Z,84.91
2023-03-22T02:20:47.515Z,85.52
2023-03-22T02:21:47.476Z,85.46
2023-03-22T02:22:47.481Z,85.46
2023-03-22T02:23:47.477Z,85.46
2023-03-22T02:24:47.478Z,85.36
2023-03-22T02:25:47.423Z,85.56
2023-03-22T02:26:47.432Z,85.77
2023-03-22T02:27:47.409Z,85.77
2023-03-22T02:28:47.431Z,85.87
2023-03-22T02:29:47.421Z,85.46
2023-03-22T02:30:47.394Z,85.46
2023-03-22T02:31:47.370Z,85.66
2023-03-22T02:32:47.386Z,85.87
2023-03-22T02:33:47.349Z,85.66
2023-03-22T02:34:47.374Z,85.87
2023-03-22T02:35:47.533Z,86.38
2023-03-22T02:36:47.341Z,86.48
2023-03-22T02:37:47.298Z,86.38
2023-03-22T02:38:47.308Z,86.58
2023-03-22T02:39:47.278Z,86.48
2023-03-22T02:40:47.286Z,86.99
2023-03-22T02:41:47.270Z,86.79
2023-03-22T02:42:47.276Z,87.51
2023-03-22T02:43:47.245Z,87.24
2023-03-22T02:44:47.249Z,87.24
2023-03-22T02:45:47.212Z,87.14
2023-03-22T02:46:47.352Z,87.20
2023-03-22T02:47:47.223Z,87.30
2023-03-22T02:48:47.198Z,87.20
2023-03-22T02:49:47.167Z,86.79
2023-03-22T02:50:47.177Z,86.90
2023-03-22T02:51:47.145Z,86.58
2023-03-22T02:52:47.194Z,86.99
2023-03-22T02:53:47.153Z,86.79
2023-03-22T02:54:47.154Z,87.30
2023-03-22T02:55:47.110Z,87.10
2023-03-22T02:56:47.115Z,87.30
2023-03-22T02:57:47.082Z,87.10
2023-03-22T02:58:47.104Z,87.10
2023-03-22T02:59:47.095Z,86.90
2023-03-22T03:00:47.127Z,86.90
2023-03-22T03:01:47.115Z,87.20
2023-03-22T03:02:47.069Z,86.99
2023-03-22T03:03:47.031Z,87.20
2023-03-22T03:04:47.037Z,87.51
2023-03-22T03:05:47.048Z,86.90
2023-03-22T03:06:47.009Z,87.16
2023-03-22T03:07:46.978Z,87.06
2023-03-22T03:08:46.985Z,86.85
2023-03-22T03:09:46.955Z,86.65
2023-03-22T03:10:46.970Z,86.75
2023-03-22T03:11:46.957Z,86.75
2023-03-22T03:12:46.951Z,86.65
2023-03-22T03:13:46.916Z,86.55
2023-03-22T03:14:46.922Z,86.75
2023-03-22T03:15:46.891Z,86.75
2023-03-22T03:16:47.011Z,87.06
2023-03-22T03:17:46.905Z,86.75
2023-03-22T03:18:46.889Z,86.65
2023-03-22T03:19:46.858Z,86.24
2023-03-22T03:20:46.865Z,86.75
2023-03-22T03:21:46.829Z,86.96
2023-03-22T03:22:46.841Z,86.24
2023-03-22T03:23:46.827Z,86.24
2023-03-22T03:24:46.817Z,86.34
2023-03-22T03:25:46.787Z,86.14
2023-03-22T03:26:46.797Z,86.14
2023-03-22T03:27:46.776Z,86.04
2023-03-22T03:28:46.818Z,86.04
2023-03-22T03:29:46.770Z,86.14
2023-03-22T03:30:46.769Z,86.34
2023-03-22T03:31:46.874Z,86.24
2023-03-22T03:32:46.751Z,86.24
2023-03-22T03:33:46.702Z,86.24
2023-03-22T03:34:46.711Z,86.04
2023-03-22T03:35:46.754Z,86.44
2023-03-22T03:36:46.724Z,86.24
2023-03-22T03:37:46.670Z,86.34
2023-03-22T03:38:46.673Z,86.04
2023-03-22T03:39:46.638Z,86.44
2023-03-22T03:40:46.649Z,85.72
2023-03-22T03:41:46.652Z,85.63
2023-03-22T03:42:46.638Z,85.93
2023-03-22T03:43:46.598Z,85.42
2023-03-22T03:44:46.625Z,86.14
2023-03-22T03:45:46.588Z,86.44
2023-03-22T03:46:46.592Z,86.55
2023-03-22T03:47:46.709Z,86.24
2023-03-22T03:48:46.597Z,86.24
2023-03-22T03:49:46.546Z,86.24
2023-03-22T03:50:46.545Z,86.65
2023-03-22T03:51:46.511Z,86.38
2023-03-22T03:52:46.525Z,86.58
2023-03-22T03:53:46.521Z,86.58
2023-03-22T03:54:46.505Z,86.48
2023-03-22T03:55:46.469Z,86.69
2023-03-22T03:56:46.487Z,86.38
2023-03-22T03:57:46.449Z,86.38
2023-03-22T03:58:46.469Z,86.69
2023-03-22T03:59:46.462Z,86.79
2023-03-22T04:00:46.487Z,86.79
2023-03-22T04:01:46.411Z,86.48
2023-03-22T04:02:46.421Z,86.18
2023-03-22T04:03:46.388Z,86.28
2023-03-22T04:04:46.476Z,86.90
2023-03-22T04:05:46.373Z,86.38
2023-03-22T04:06:46.384Z,86.07
2023-03-22T04:07:46.370Z,86.58
2023-03-22T04:08:46.373Z,86.07
2023-03-22T04:09:46.320Z,86.58
2023-03-22T04:10:46.333Z,86.28
2023-03-22T04:11:46.320Z,86.38
2023-03-22T04:12:46.321Z,86.90
2023-03-22T04:13:46.276Z,87.10
2023-03-22T04:14:46.290Z,86.83
2023-03-22T04:15:46.254Z,87.04
2023-03-22T04:16:46.323Z,87.14
2023-03-22T04:17:46.268Z,87.45
2023-03-22T04:18:46.248Z,87.65
2023-03-22T04:19:46.225Z,87.70
2023-03-22T04:20:46.262Z,87.79
2023-03-22T04:21:46.193Z,87.59
2023-03-22T04:22:46.215Z,87.14
2023-03-22T04:23:46.205Z,86.83
2023-03-22T04:24:46.227Z,86.73
2023-03-22T04:25:46.151Z,86.73
2023-03-22T04:26:46.165Z,86.73
2023-03-22T04:27:46.154Z,86.73
2023-03-22T04:28:46.119Z,87.14
2023-03-22T04:29:46.164Z,86.93
2023-03-22T04:30:46.127Z,87.08
2023-03-22T04:31:46.116Z,87.18
2023-03-22T04:32:46.082Z,87.49
2023-03-22T04:33:46.089Z,87.38
2023-03-22T04:34:46.066Z,87.49
2023-03-22T04:35:46.136Z,87.59
2023-03-22T04:36:46.051Z,87.70
2023-03-22T04:37:46.051Z,87.90
2023-03-22T04:38:46.024Z,87.90
2023-03-22T04:39:46.042Z,88.00
2023-03-22T04:40:45.989Z,87.79
2023-03-22T04:41:46.028Z,87.90
2023-03-22T04:42:45.970Z,87.90
2023-03-22T04:43:45.978Z,87.90
2023-03-22T04:44:45.952Z,88.10
2023-03-22T04:45:45.967Z,88.24
2023-03-22T04:46:45.993Z,88.10
2023-03-22T04:47:46.020Z,88.10
2023-03-22T04:48:45.908Z,88.10
2023-03-22T04:49:45.918Z,88.10
2023-03-22T04:50:45.896Z,88.10
2023-03-22T04:51:45.892Z,88.24
2023-03-22T04:52:45.875Z,88.56
2023-03-22T04:53:45.916Z,88.76
2023-03-22T04:54:45.842Z,88.86
2023-03-22T04:55:45.859Z,88.96
2023-03-22T04:56:45.825Z,89.07
2023-03-22T04:57:45.830Z,89.07
2023-03-22T04:58:45.802Z,89.62
2023-03-22T04:59:45.846Z,89.62
2023-03-22T05:00:45.774Z,89.62
2023-03-22T05:01:45.826Z,89.72
2023-03-22T05:02:45.824Z,89.83
2023-03-22T05:03:45.775Z,89.93
2023-03-22T05:04:45.731Z,90.03
2023-03-22T05:05:45.769Z,90.14
2023-03-22T05:06:45.715Z,90.03
2023-03-22T05:07:45.804Z,90.24
2023-03-22T05:08:45.691Z,90.24
2023-03-22T05:09:45.700Z,90.34
2023-03-22T05:10:45.677Z,90.48
2023-03-22T05:11:45.728Z,90.59
2023-03-22T05:12:45.647Z,90.59
2023-03-22T05:13:45.670Z,90.44
2023-03-22T05:14:45.707Z,90.44
2023-03-22T05:15:45.680Z,90.55
2023-03-22T05:16:45.604Z,90.59
2023-03-22T05:17:45.667Z,90.65
2023-03-22T05:18:45.628Z,90.69
2023-03-22T05:19:45.594Z,90.69
2023-03-22T05:20:45.562Z,90.69
2023-03-22T05:21:45.588Z,90.80
2023-03-22T05:22:45.558Z,90.89
2023-03-22T05:23:45.583Z,90.89
2023-03-22T05:24:45.525Z,90.65
2023-03-22T05:25:45.536Z,90.55
2023-03-22T05:26:45.517Z,90.55
2023-03-22T05:27:45.529Z,90.44
2023-03-22T05:28:45.488Z,90.44
2023-03-22T05:29:45.523Z,90.65
2023-03-22T05:30:45.457Z,90.59
2023-03-22T05:31:45.497Z,90.89
2023-03-22T05:32:45.433Z,90.89
2023-03-22T05:33:45.458Z,91.10
2023-03-22T05:34:45.494Z,91.00
2023-03-22T05:35:45.469Z,91.20
2023-03-22T05:36:45.393Z,91.10
2023-03-22T05:37:45.411Z,91.20
2023-03-22T05:38:45.374Z,91.20
2023-03-22T05:39:45.385Z,91.10
2023-03-22T05:40:45.359Z,91.10
2023-03-22T05:41:45.398Z,91.00
2023-03-22T05:42:45.349Z,91.00
2023-03-22T05:43:45.338Z,90.75
2023-03-22T05:44:45.314Z,90.55
2023-03-22T05:45:45.322Z,90.55
2023-03-22T05:46:45.330Z,90.44
2023-03-22T05:47:45.375Z,90.34
2023-03-22T05:48:45.280Z,90.24
2023-03-22T05:49:45.292Z,90.14
2023-03-22T05:50:45.255Z,90.14
2023-03-22T05:51:45.261Z,90.03
2023-03-22T05:52:45.231Z,90.14
2023-03-22T05:53:45.271Z,90.14
2023-03-22T05:54:45.211Z,89.89
2023-03-22T05:55:45.223Z,89.69
2023-03-22T05:56:45.188Z,89.69
2023-03-22T05:57:45.200Z,89.48
2023-03-22T05:58:45.164Z,89.17
2023-03-22T05:59:45.195Z,88.82
2023-03-22T06:00:45.161Z,88.41
2023-03-22T06:01:45.181Z,88.10
2023-03-22T06:02:45.161Z,88.10
2023-03-22T06:03:45.144Z,88.06
2023-03-22T06:04:45.103Z,87.45
2023-03-22T06:05:45.140Z,87.34
2023-03-22T06:06:45.093Z,87.14
2023-03-22T06:07:45.100Z,86.90
2023-03-22T06:08:45.066Z,86.99
2023-03-22T06:09:45.072Z,86.69
2023-03-22T06:10:45.044Z,86.69
2023-03-22T06:11:45.079Z,87.10
2023-03-22T06:12:45.020Z,86.48
2023-03-22T06:13:45.037Z,86.48
2023-03-22T06:14:44.995Z,86.38
2023-03-22T06:15:45.011Z,86.69
2023-03-22T06:16:45.020Z,85.87
2023-03-22T06:17:45.014Z,86.34
2023-03-22T06:18:44.961Z,85.93
2023-03-22T06:19:44.965Z,85.42
2023-03-22T06:20:44.944Z,85.42
2023-03-22T06:21:44.952Z,85.63
2023-03-22T06:22:44.919Z,85.11
2023-03-22T06:23:44.946Z,85.22
2023-03-22T06:24:44.892Z,85.42
2023-03-22T06:25:44.906Z,85.11
2023-03-22T06:26:44.868Z,85.42
2023-03-22T06:27:44.882Z,85.11
2023-03-22T06:28:44.850Z,85.31
2023-03-22T06:29:44.872Z,85.42
2023-03-22T06:30:44.854Z,85.31
2023-03-22T06:31:44.838Z,85.63
2023-03-22T06:32:44.798Z,85.52
2023-03-22T06:33:44.809Z,85.31
2023-03-22T06:34:44.777Z,85.63
2023-03-22T06:35:44.848Z,85.52
2023-03-22T06:36:44.758Z,85.28
2023-03-22T06:37:44.767Z,85.38
2023-03-22T06:38:44.744Z,85.48
2023-03-22T06:39:44.760Z,85.48
2023-03-22T06:40:44.721Z,85.28
2023-03-22T06:41:44.741Z,85.38
2023-03-22T06:42:44.690Z,85.17
2023-03-22T06:43:44.706Z,85.38
2023-03-22T06:44:44.679Z,85.28
2023-03-22T06:45:44.711Z,84.87
2023-03-22T06:46:44.653Z,84.77
2023-03-22T06:47:44.774Z,84.97
2023-03-22T06:48:44.627Z,84.66
2023-03-22T06:49:44.634Z,84.66
2023-03-22T06:50:44.928Z,84.52
2023-03-22T06:51:44.613Z,84.11
2023-03-22T06:52:44.600Z,84.11
2023-03-22T06:53:44.619Z,84.42
2023-03-22T06:54:44.585Z,84.52
2023-03-22T06:55:44.570Z,84.01
2023-03-22T06:56:44.536Z,83.76
2023-03-22T06:57:44.550Z,83.66
2023-03-22T06:58:44.514Z,83.66
2023-03-22T06:59:44.560Z,83.46
2023-03-22T07:00:44.492Z,83.87
2023-03-22T07:01:44.670Z,83.05
2023-03-22T07:02:44.479Z,82.91
2023-03-22T07:03:44.496Z,82.50
2023-03-22T07:04:44.503Z,82.70
2023-03-22T07:05:44.491Z,82.70
2023-03-22T07:06:44.427Z,81.95
2023-03-22T07:07:44.491Z,82.05
2023-03-22T07:08:44.420Z,82.05
2023-03-22T07:09:44.425Z,81.74
2023-03-22T07:10:44.386Z,81.74
2023-03-22T07:11:44.443Z,81.65
2023-03-22T07:12:44.367Z,81.65
2023-03-22T07:13:44.384Z,82.15
2023-03-22T07:14:44.344Z,81.95
2023-03-22T07:15:44.399Z,81.74
2023-03-22T07:16:44.321Z,82.46
2023-03-22T07:17:44.359Z,81.65
2023-03-22T07:18:44.307Z,81.34
2023-03-22T07:19:44.407Z,81.54
2023-03-22T07:20:44.281Z,81.44
2023-03-22T07:21:44.291Z,81.44
2023-03-22T07:22:44.269Z,80.89
2023-03-22T07:23:44.283Z,80.89
2023-03-22T07:24:55.622Z,81.13
2023-03-22T07:25:44.264Z,80.93
2023-03-22T07:26:44.218Z,81.60
2023-03-22T07:27:44.230Z,81.71
2023-03-22T07:28:44.195Z,81.03
2023-03-22T07:29:44.222Z,81.65
2023-03-22T07:30:44.169Z,80.93
2023-03-22T07:31:44.308Z,80.52
2023-03-22T07:32:44.155Z,81.24
2023-03-22T07:33:44.175Z,81.03
2023-03-22T07:34:44.130Z,80.73
2023-03-22T07:35:44.273Z,80.93
2023-03-22T07:36:44.110Z,81.24
2023-03-22T07:37:44.124Z,81.24
2023-03-22T07:38:44.238Z,80.73
2023-03-22T07:39:44.113Z,81.03
2023-03-22T07:40:44.069Z,81.34
2023-03-22T07:41:44.100Z,80.93
2023-03-22T07:42:44.056Z,80.83
2023-03-22T07:43:54.071Z,80.83
2023-03-22T07:44:44.031Z,80.69
2023-03-22T07:45:44.041Z,80.38
2023-03-22T07:46:44.067Z,80.58
2023-03-22T07:47:44.148Z,80.58
2023-03-22T07:48:43.985Z,80.58
2023-03-22T07:49:44.000Z,80.48
2023-03-22T07:50:43.962Z,80.18
2023-03-22T07:51:43.973Z,80.07
2023-03-22T07:52:43.954Z,80.28
2023-03-22T07:53:44.037Z,79.87
2023-03-22T07:54:43.924Z,79.43
2023-03-22T07:55:43.938Z,79.43
2023-03-22T07:56:43.911Z,79.52
2023-03-22T07:57:43.908Z,79.93
2023-03-22T07:58:43.903Z,79.22
2023-03-22T07:59:43.905Z,78.20
2023-03-22T08:00:43.858Z,78.09
2023-03-22T08:01:43.885Z,78.20
2023-03-22T08:02:43.902Z,78.50
2023-03-22T08:03:43.859Z,77.89
2023-03-22T08:04:43.817Z,77.38
2023-03-22T08:05:43.861Z,76.87
2023-03-22T08:06:43.799Z,76.02
2023-03-22T08:07:43.808Z,75.71
2023-03-22T08:08:43.793Z,75.31
2023-03-22T08:09:43.786Z,75.10
2023-03-22T08:10:43.752Z,75.00
2023-03-22T08:11:43.801Z,75.27
2023-03-22T08:12:43.737Z,74.15
2023-03-22T08:13:43.738Z,73.91
2023-03-22T08:14:43.704Z,73.10
2023-03-22T08:15:43.761Z,73.30
2023-03-22T08:16:43.858Z,73.10
2023-03-22T08:17:43.711Z,73.81
2023-03-22T08:18:45.343Z,73.91
2023-03-22T08:19:43.674Z,73.60
2023-03-22T08:20:43.641Z,72.69
2023-03-22T08:21:43.653Z,72.89
2023-03-22T08:22:43.615Z,72.75
2023-03-22T08:23:43.662Z,72.78
2023-03-22T08:24:43.604Z,70.65
2023-03-22T08:25:43.641Z,70.95
2023-03-22T08:26:43.586Z,70.24
2023-03-22T08:27:43.586Z,69.70
2023-03-22T08:28:43.581Z,69.84
2023-03-22T08:29:43.595Z,68.79
2023-03-22T08:30:43.529Z,67.06
2023-03-22T08:31:43.608Z,68.65
2023-03-22T08:32:43.510Z,69.26
2023-03-22T08:33:43.587Z,69.29
2023-03-22T08:34:43.507Z,69.70
2023-03-22T08:35:43.577Z,69.93
2023-03-22T08:36:43.471Z,70.55
2023-03-22T08:37:43.486Z,69.84
2023-03-22T08:38:43.477Z,69.93
2023-03-22T08:39:43.467Z,69.90
2023-03-22T08:40:43.492Z,69.80
2023-03-22T08:41:43.462Z,69.43
2023-03-22T08:42:43.428Z,69.73
2023-03-22T08:43:43.399Z,69.43
2023-03-22T08:44:43.418Z,69.53
2023-03-22T08:45:43.771Z,69.46
2023-03-22T08:46:43.378Z,69.53
2023-03-22T08:47:43.438Z,67.57
2023-03-22T08:48:43.354Z,66.25
2023-03-22T08:49:43.363Z,68.11
2023-03-22T08:50:43.339Z,68.11
2023-03-22T08:51:43.308Z,67.91
2023-03-22T08:52:43.318Z,68.44
2023-03-22T08:53:43.315Z,69.06
2023-03-22T08:54:43.291Z,69.16
2023-03-22T08:55:43.259Z,69.26
2023-03-22T08:56:43.296Z,69.19
2023-03-22T08:57:43.240Z,70.31
2023-03-22T08:58:43.258Z,70.51
2023-03-22T08:59:43.238Z,70.38
2023-03-22T09:00:49.012Z,69.29
2023-03-22T09:01:43.273Z,70.79
2023-03-22T09:02:43.212Z,69.60
2023-03-22T09:03:43.183Z,69.40
2023-03-22T09:04:43.256Z,69.70
2023-03-22T09:05:43.193Z,69.43
2023-03-22T09:06:43.170Z,69.29
2023-03-22T09:07:43.128Z,70.01
2023-03-22T09:08:43.141Z,69.70
2023-03-22T09:09:43.106Z,70.62
2023-03-22T09:10:43.128Z,70.04
2023-03-22T09:11:43.130Z,70.45
2023-03-22T09:12:43.098Z,69.93
2023-03-22T09:13:43.079Z,70.86
2023-03-22T09:14:43.075Z,70.75
2023-03-22T09:15:43.555Z,70.04
2023-03-22T09:16:43.049Z,69.93
2023-03-22T09:17:43.055Z,70.14
2023-03-22T09:18:43.042Z,70.38
2023-03-22T09:19:43.018Z,70.17
2023-03-22T09:20:43.506Z,70.34
2023-03-22T09:21:42.972Z,69.73
2023-03-22T09:22:42.994Z,68.38
2023-03-22T09:23:43.007Z,68.24
2023-03-22T09:24:42.967Z,68.35
2023-03-22T09:25:42.954Z,67.60
2023-03-22T09:26:42.943Z,67.43
2023-03-22T09:27:42.926Z,67.40
2023-03-22T09:28:42.947Z,66.86
2023-03-22T09:29:42.920Z,66.49
2023-03-22T09:30:43.094Z,66.28
2023-03-22T09:31:42.929Z,66.38
2023-03-22T09:32:42.893Z,67.60
2023-03-22T09:33:42.847Z,67.10
2023-03-22T09:34:42.877Z,67.02
2023-03-22T09:35:43.410Z,66.89
2023-03-22T09:36:42.854Z,67.10
2023-03-22T09:37:42.797Z,67.16
2023-03-22T09:38:42.819Z,65.37
2023-03-22T09:39:42.777Z,64.49
2023-03-22T09:40:42.795Z,64.39
2023-03-22T09:41:42.785Z,65.30
2023-03-22T09:42:42.786Z,65.33
2023-03-22T09:43:42.740Z,65.64
2023-03-22T09:44:42.750Z,66.22
2023-03-22T09:45:43.085Z,66.12
2023-03-22T09:46:42.815Z,65.03
2023-03-22T09:47:45.268Z,66.05
2023-03-22T09:48:42.704Z,66.15
2023-03-22T09:49:53.018Z,66.63
2023-03-22T09:50:42.693Z,66.22
2023-03-22T09:51:42.660Z,64.67
2023-03-22T09:52:42.667Z,64.26
2023-03-22T09:53:42.655Z,64.15
2023-03-22T09:54:42.647Z,63.45
2023-03-22T09:55:42.619Z,63.24
2023-03-22T09:56:42.630Z,63.28
2023-03-22T09:57:42.585Z,63.98
2023-03-22T09:58:42.655Z,63.78
2023-03-22T09:59:42.596Z,62.66
2023-03-22T10:00:42.667Z,63.58
2023-03-22T10:01:42.824Z,63.45
2023-03-22T10:02:42.645Z,63.55
2023-03-22T10:03:42.528Z,63.01
2023-03-22T10:04:42.546Z,62.94
2023-03-22T10:05:42.846Z,63.24
2023-03-22T10:06:42.514Z,62.13
2023-03-22T10:07:42.488Z,62.94
2023-03-22T10:08:42.493Z,62.81
2023-03-22T10:09:42.473Z,63.21
2023-03-22T10:10:42.470Z,61.25
2023-03-22T10:11:45.473Z,61.41
2023-03-22T10:12:42.446Z,61.59
2023-03-22T10:13:42.413Z,61.90
2023-03-22T10:14:42.432Z,62.13
2023-03-22T10:15:42.883Z,62.74
2023-03-22T10:16:42.410Z,61.72
2023-03-22T10:17:42.408Z,61.59
2023-03-22T10:18:42.390Z,61.97
2023-03-22T10:19:42.350Z,61.53
2023-03-22T10:20:42.364Z,60.19
2023-03-22T10:21:42.426Z,60.11
2023-03-22T10:22:42.351Z,60.01
2023-03-22T10:23:44.075Z,61.53
2023-03-22T10:24:42.324Z,60.82
2023-03-22T10:25:42.747Z,61.71
2023-03-22T10:26:42.295Z,61.10
2023-03-22T10:27:42.271Z,59.99
2023-03-22T10:28:42.272Z,60.36
2023-03-22T10:29:42.264Z,59.14
2023-03-22T10:30:42.684Z,58.64
2023-03-22T10:31:42.267Z,59.25
2023-03-22T10:32:56.431Z,59.25
2023-03-22T10:33:44.466Z,57.73
2023-03-22T10:34:42.210Z,58.76
2023-03-22T10:35:42.710Z,58.18
2023-03-22T10:36:42.190Z,59.43
2023-03-22T10:37:42.154Z,59.74
2023-03-22T10:38:42.174Z,58.82
2023-03-22T10:39:42.139Z,59.41
2023-03-22T10:40:42.170Z,59.17
2023-03-22T10:41:42.155Z,58.36
2023-03-22T10:42:42.120Z,58.67
2023-03-22T10:43:42.113Z,58.16
2023-03-22T10:44:42.105Z,57.75
2023-03-22T10:45:42.539Z,57.86
2023-03-22T10:46:42.220Z,58.26
2023-03-22T10:47:42.169Z,57.96
2023-03-22T10:48:42.073Z,56.44
2023-03-22T10:49:42.025Z,57.55
2023-03-22T10:50:42.044Z,57.35
2023-03-22T10:51:42.012Z,56.84
2023-03-22T10:52:42.027Z,56.74
2023-03-22T10:53:42.006Z,59.07
2023-03-22T10:54:42.002Z,57.93
2023-03-22T10:55:42.494Z,57.62
2023-03-22T10:56:41.980Z,57.22
2023-03-22T10:57:41.942Z,57.15
2023-03-22T10:58:41.952Z,57.04
2023-03-22T10:59:41.943Z,58.16
2023-03-22T11:00:42.565Z,58.54
2023-03-22T11:01:42.101Z,57.93
2023-03-22T11:02:41.951Z,56.84
2023-03-22T11:03:41.890Z,57.24
2023-03-22T11:04:41.886Z,58.49
2023-03-22T11:05:42.045Z,58.80
2023-03-22T11:06:41.886Z,57.68
2023-03-22T11:07:41.832Z,58.80
2023-03-22T11:08:41.841Z,57.71
2023-03-22T11:09:41.811Z,58.22
2023-03-22T11:10:41.932Z,58.72
2023-03-22T11:11:41.803Z,58.72
2023-03-22T11:12:41.799Z,58.59
2023-03-22T11:13:41.765Z,59.30
2023-03-22T11:14:41.778Z,59.30
2023-03-22T11:15:42.045Z,57.78
2023-03-22T11:16:41.785Z,58.18
2023-03-22T11:17:43.310Z,58.18
2023-03-22T11:18:41.734Z,57.71
2023-03-22T11:19:41.701Z,57.71
2023-03-22T11:20:42.113Z,58.52
2023-03-22T11:21:41.673Z,58.11
2023-03-22T11:22:41.698Z,58.14
2023-03-22T11:23:41.729Z,59.74
2023-03-22T11:24:41.660Z,58.22
2023-03-22T11:25:41.630Z,58.62
2023-03-22T11:26:41.932Z,58.72
2023-03-22T11:27:41.612Z,58.39
2023-03-22T11:28:41.633Z,58.90
2023-03-22T11:29:41.603Z,58.62
2023-03-22T11:30:41.948Z,57.58
2023-03-22T11:31:41.643Z,56.97
2023-03-22T11:32:41.615Z,56.77
2023-03-22T11:33:41.545Z,56.97
2023-03-22T11:34:41.561Z,55.43
2023-03-22T11:35:41.563Z,56.71
2023-03-22T11:36:41.546Z,55.80
2023-03-22T11:37:41.520Z,55.17
2023-03-22T11:38:41.527Z,55.57
2023-03-22T11:39:41.487Z,54.46
2023-03-22T11:40:41.719Z,54.69
2023-03-22T11:41:41.492Z,53.91
2023-03-22T11:42:41.486Z,54.41
2023-03-22T11:43:41.437Z,54.21
2023-03-22T11:44:41.455Z,54.00
2023-03-22T11:45:41.457Z,54.41
2023-03-22T11:46:41.452Z,54.51
2023-03-22T11:47:41.620Z,54.38
2023-03-22T11:48:41.487Z,55.50
2023-03-22T11:49:41.549Z,55.07
2023-03-22T11:50:41.563Z,53.05
2023-03-22T11:51:41.349Z,54.16
2023-03-22T11:52:41.378Z,56.05
2023-03-22T11:53:41.348Z,54.03
2023-03-22T11:54:41.342Z,53.02
2023-03-22T11:55:41.498Z,54.00
2023-03-22T11:56:41.326Z,52.31
2023-03-22T11:57:41.285Z,54.16
2023-03-22T11:58:41.297Z,54.36
2023-03-22T11:59:41.278Z,55.07
2023-03-22T12:00:41.272Z,54.64
2023-03-22T12:01:41.255Z,53.70
2023-03-22T12:02:41.415Z,52.84
2023-03-22T12:03:41.371Z,53.72
2023-03-22T12:04:41.305Z,53.52
2023-03-22T12:05:41.466Z,52.74
2023-03-22T12:06:41.243Z,52.74
2023-03-22T12:07:41.199Z,52.74
2023-03-22T12:08:41.194Z,53.34
2023-03-22T12:09:41.150Z,52.64
2023-03-22T12:10:41.176Z,52.94
2023-03-22T12:11:41.156Z,54.28
2023-03-22T12:12:41.139Z,53.67
2023-03-22T12:13:41.134Z,53.75
2023-03-22T12:14:41.120Z,53.34
2023-03-22T12:15:41.245Z,52.97
2023-03-22T12:16:41.222Z,53.17
2023-03-22T12:17:41.165Z,53.27
2023-03-22T12:18:41.082Z,54.08
2023-03-22T12:19:41.048Z,53.58
2023-03-22T12:20:41.420Z,54.49
2023-03-22T12:21:41.023Z,53.47
2023-03-22T12:22:41.034Z,53.19
2023-03-22T12:23:41.023Z,53.70
2023-03-22T12:24:42.828Z,54.41
2023-03-22T12:25:41.335Z,54.51
2023-03-22T12:26:41.000Z,54.71
2023-03-22T12:27:40.958Z,53.60
2023-03-22T12:28:40.962Z,53.02
2023-03-22T12:29:40.978Z,54.24
2023-03-22T12:30:42.708Z,53.42
2023-03-22T12:31:40.965Z,53.40
2023-03-22T12:32:40.984Z,52.99
2023-03-22T12:33:40.892Z,54.11
2023-03-22T12:34:40.905Z,53.80
2023-03-22T12:35:41.076Z,53.52
2023-03-22T12:36:40.880Z,54.44
2023-03-22T12:37:40.852Z,53.83
2023-03-22T12:38:40.882Z,54.84
2023-03-22T12:39:40.835Z,54.24
2023-03-22T12:40:41.106Z,54.97
2023-03-22T12:41:40.837Z,55.58
2023-03-22T12:42:50.755Z,56.49
2023-03-22T12:43:40.796Z,57.71
2023-03-22T12:44:40.801Z,56.70
2023-03-22T12:45:40.962Z,57.81
2023-03-22T12:46:40.940Z,57.60
2023-03-22T12:47:40.835Z,59.03
2023-03-22T12:48:40.891Z,61.25
2023-03-22T12:49:40.720Z,58.31
2023-03-22T12:50:40.907Z,57.30
2023-03-22T12:51:40.695Z,56.90
2023-03-22T12:52:45.651Z,57.30